Time;durP1;ratioP1;P1;durP2;ratioP2;P2;SDS_P1;SDS_P2;PMS_P1;PMS_P2;Temp;Humidity;BMP_temperature;BMP_pressure;BME280_temperature;BME280_humidity;BME280_pressure;Samples;Min_cycle;Max_cycle;Signal;HPM_P1;HPM_P2
2023/05/05 00:01:11;;;;;;;0.82;0.63;;;15.10;63.40;;;;;;5113068;28;20040;-69
2023/05/05 00:03:37;;;;;;;0.70;0.68;;;15.10;63.50;;;;;;5112786;28;20047;-69
2023/05/05 00:06:04;;;;;;;0.88;0.80;;;15.00;63.50;;;;;;5113060;28;20083;-69
2023/05/05 00:08:30;;;;;;;0.65;0.60;;;15.00;63.60;;;;;;5094698;28;20058;-69
2023/05/05 00:10:56;;;;;;;0.40;0.40;;;15.10;64.30;;;;;;5093674;28;20481;-69
2023/05/05 00:13:22;;;;;;;0.98;0.70;;;15.00;63.60;;;;;;5094305;28;20046;-69
2023/05/05 00:15:50;;;;;;;0.93;0.70;;;14.90;63.60;;;;;;5112429;28;20043;-69
2023/05/05 00:18:17;;;;;;;0.85;0.70;;;14.90;63.70;;;;;;5094821;28;20090;-70
2023/05/05 00:20:43;;;;;;;0.60;0.60;;;14.90;63.80;;;;;;5112960;28;20082;-69
2023/05/05 00:23:09;;;;;;;0.52;0.52;;;14.90;63.80;;;;;;5112291;28;20474;-69
2023/05/05 00:25:34;;;;;;;1.05;0.80;;;14.90;63.90;;;;;;5112442;28;20084;-69
2023/05/05 00:28:00;;;;;;;2.55;0.88;;;14.80;63.90;;;;;;5112874;28;20035;-69
2023/05/05 00:30:26;;;;;;;0.93;0.82;;;14.90;64.00;;;;;;5113060;28;20036;-69
2023/05/05 00:32:53;;;;;;;0.70;0.70;;;14.90;64.10;;;;;;5098445;28;20039;-69
2023/05/05 00:35:19;;;;;;;1.38;0.90;;;14.80;64.10;;;;;;5116479;28;20043;-69
2023/05/05 00:37:44;;;;;;;0.93;0.80;;;14.80;64.10;;;;;;5116499;28;20055;-69
2023/05/05 00:40:10;;;;;;;0.63;0.63;;;14.80;64.30;;;;;;5115929;28;20388;-69
2023/05/05 00:42:46;;;;;;;0.70;0.70;;;14.80;64.40;;;;;;5115928;28;20122;-69
2023/05/05 00:45:13;;;;;;;0.70;0.70;;;14.70;64.50;;;;;;5115855;28;20035;-69
2023/05/05 00:47:41;;;;;;;0.80;0.80;;;14.70;64.50;;;;;;5115884;28;20172;-69
2023/05/05 00:50:08;;;;;;;0.80;0.80;;;14.60;64.70;;;;;;5116003;28;20492;-69
2023/05/05 00:52:36;;;;;;;1.27;0.88;;;14.60;64.70;;;;;;5116153;28;20491;-69
2023/05/05 00:55:05;;;;;;;0.70;0.70;;;14.60;64.80;;;;;;5115549;28;20032;-70
2023/05/05 00:57:34;;;;;;;0.82;0.73;;;14.60;64.90;;;;;;5115500;28;20043;-70
2023/05/05 01:00:01;;;;;;;0.80;0.77;;;14.50;64.90;;;;;;5115619;28;20123;-69
2023/05/05 01:02:27;;;;;;;0.80;0.80;;;14.60;65.00;;;;;;5115488;28;20028;-69
2023/05/05 01:04:54;;;;;;;0.88;0.63;;;14.50;65.00;;;;;;5115535;28;20045;-69
2023/05/05 01:07:40;;;;;;;0.77;0.77;;;14.50;65.10;;;;;;5116086;28;20039;-69
2023/05/05 01:10:24;;;;;;;0.88;0.70;;;14.60;65.30;;;;;;5115369;28;20039;-69
2023/05/05 01:13:01;;;;;;;0.98;0.82;;;14.50;65.30;;;;;;5115340;28;20496;-69
2023/05/05 01:15:33;;;;;;;0.90;0.70;;;14.50;65.30;;;;;;5097741;28;20040;-69
2023/05/05 01:18:20;;;;;;;1.17;0.75;;;14.50;65.40;;;;;;5097303;28;20046;-69
2023/05/05 01:20:57;;;;;;;0.80;0.70;;;14.50;65.50;;;;;;5115243;28;20096;-70
2023/05/05 01:23:46;;;;;;;0.60;0.60;;;14.40;65.50;;;;;;5115364;28;20424;-70
2023/05/05 01:26:41;;;;;;;1.52;0.93;;;14.40;65.60;;;;;;5115183;28;20397;-70
2023/05/05 01:29:45;;;;;;;0.60;0.60;;;14.40;65.70;;;;;;5115054;28;20062;-69
2023/05/05 01:32:14;;;;;;;0.70;0.57;;;14.40;65.80;;;;;;5095093;28;20122;-69
2023/05/05 01:34:52;;;;;;;1.10;0.80;;;14.40;66.40;;;;;;5115066;28;20447;-70
2023/05/05 01:37:29;;;;;;;1.08;0.90;;;14.40;65.80;;;;;;5096686;28;20039;-70
2023/05/05 01:39:58;;;;;;;0.77;0.70;;;14.50;65.90;;;;;;5075960;28;20150;-69
2023/05/05 01:42:25;;;;;;;1.27;1.08;;;14.50;65.90;;;;;;5113799;28;20089;-70
2023/05/05 01:44:52;;;;;;;1.10;1.00;;;14.50;65.90;;;;;;5115370;28;20051;-70
2023/05/05 01:47:21;;;;;;;1.10;1.00;;;14.50;65.80;;;;;;5114780;28;20043;-70
2023/05/05 01:49:47;;;;;;;1.20;1.10;;;14.60;65.90;;;;;;5096713;28;20066;-70
2023/05/05 01:52:15;;;;;;;1.92;1.05;;;14.60;66.00;;;;;;5114721;28;20051;-70
2023/05/05 01:54:42;;;;;;;1.10;1.00;;;14.60;66.00;;;;;;5114602;28;20073;-70
2023/05/05 01:57:10;;;;;;;1.95;1.38;;;14.60;66.10;;;;;;5114675;28;20048;-70
2023/05/05 01:59:38;;;;;;;2.13;1.50;;;14.60;66.20;;;;;;5115127;28;20124;-70
2023/05/05 02:02:06;;;;;;;1.42;1.30;;;14.60;66.20;;;;;;5114888;28;20039;-70
2023/05/05 02:04:33;;;;;;;1.45;1.10;;;14.70;66.20;;;;;;5096447;28;20039;-69
2023/05/05 02:07:00;;;;;;;1.08;0.98;;;14.70;66.20;;;;;;5077863;28;20047;-70
2023/05/05 02:09:28;;;;;;;1.35;1.00;;;14.70;66.30;;;;;;5114566;28;20036;-70
2023/05/05 02:11:56;;;;;;;1.52;1.00;;;14.70;66.40;;;;;;5114887;28;20047;-70
2023/05/05 02:14:23;;;;;;;1.08;0.98;;;14.80;66.50;;;;;;5096007;28;20089;-69
2023/05/05 02:16:50;;;;;;;1.10;1.00;;;14.80;66.60;;;;;;5114408;28;20096;-70
2023/05/05 02:19:20;;;;;;;1.75;1.00;;;14.80;66.70;;;;;;5114430;28;20043;-70
2023/05/05 02:21:45;;;;;;;1.65;1.05;;;14.70;66.70;;;;;;5114742;28;20047;-69
2023/05/05 02:24:11;;;;;;;1.10;0.98;;;14.70;66.80;;;;;;5095805;28;20062;-71
2023/05/05 02:26:39;;;;;;;1.38;1.13;;;14.70;66.90;;;;;;5114677;28;20031;-70
2023/05/05 02:29:09;;;;;;;1.75;1.13;;;14.80;67.20;;;;;;5114256;28;20050;-69
2023/05/05 02:31:44;;;;;;;1.40;1.17;;;14.70;67.20;;;;;;5114128;28;20078;-70
2023/05/05 02:34:12;;;;;;;1.48;1.20;;;14.70;67.40;;;;;;5114168;28;20044;-70
2023/05/05 02:36:40;;;;;;;0.90;0.90;;;14.60;67.50;;;;;;5114113;28;20043;-70
2023/05/05 02:39:12;;;;;;;2.08;1.35;;;14.60;67.70;;;;;;5113902;28;20401;-70
2023/05/05 02:41:40;;;;;;;1.10;1.00;;;14.50;67.90;;;;;;5113910;28;20039;-69
2023/05/05 02:44:08;;;;;;;1.02;0.93;;;14.50;68.10;;;;;;5095775;28;20504;-70
2023/05/05 02:46:36;;;;;;;1.05;0.90;;;14.40;68.30;;;;;;5113857;28;20039;-70
2023/05/05 02:49:01;;;;;;;1.73;1.20;;;14.40;68.40;;;;;;5092047;28;20039;-70
2023/05/05 02:51:27;;;;;;;1.27;1.00;;;14.30;68.60;;;;;;5114043;28;20048;-70
2023/05/05 02:53:53;;;;;;;1.10;1.00;;;14.20;68.70;;;;;;5095392;28;20482;-70
2023/05/05 02:56:33;;;;;;;1.52;1.17;;;14.20;69.00;;;;;;5113620;28;20047;-70
2023/05/05 02:59:18;;;;;;;1.38;1.05;;;14.10;69.30;;;;;;5113886;28;20122;-70
2023/05/05 03:02:13;;;;;;;1.13;1.02;;;14.10;69.40;;;;;;5113571;28;20042;-70
2023/05/05 03:04:53;;;;;;;1.42;1.10;;;14.10;69.60;;;;;;5100240;28;20082;-70
2023/05/05 03:07:24;;;;;;;1.33;1.00;;;14.10;69.60;;;;;;5114155;28;20043;-70
2023/05/05 03:10:03;;;;;;;1.05;0.93;;;14.00;69.60;;;;;;5113609;28;20397;-70
2023/05/05 03:12:45;;;;;;;1.55;1.15;;;13.90;69.60;;;;;;5113535;28;20047;-70
2023/05/05 03:15:12;;;;;;;1.25;1.05;;;13.90;69.70;;;;;;5113451;28;20032;-70
2023/05/05 03:17:40;;;;;;;1.67;1.10;;;13.90;69.80;;;;;;5114017;28;20036;-69
2023/05/05 03:20:07;;;;;;;1.00;0.90;;;13.90;69.90;;;;;;5113501;28;20043;-70
2023/05/05 03:22:36;;;;;;;1.42;1.13;;;13.90;70.00;;;;;;5113877;28;20385;-70
2023/05/05 03:25:03;;;;;;;1.40;1.10;;;13.80;70.10;;;;;;5113468;28;20035;-70
2023/05/05 03:27:29;;;;;;;1.30;1.13;;;13.80;70.20;;;;;;5113426;28;20044;-70
2023/05/05 03:29:55;;;;;;;2.08;1.20;;;13.80;70.30;;;;;;5079076;28;20032;-70
2023/05/05 03:32:22;;;;;;;2.58;1.00;;;13.70;70.40;;;;;;5113378;28;20115;-70
2023/05/05 03:34:48;;;;;;;1.27;1.17;;;13.70;70.60;;;;;;5113221;28;20046;-70
2023/05/05 03:37:14;;;;;;;1.30;1.17;;;13.60;70.70;;;;;;5113295;28;20040;-70
2023/05/05 03:39:39;;;;;;;1.30;1.10;;;13.60;70.80;;;;;;5113653;28;20070;-70
2023/05/05 03:42:05;;;;;;;1.48;1.13;;;13.60;70.90;;;;;;5113544;28;20085;-70
2023/05/05 03:44:31;;;;;;;1.98;1.15;;;13.60;71.00;;;;;;5113007;28;20044;-70
2023/05/05 03:46:56;;;;;;;1.63;1.33;;;13.60;71.00;;;;;;5113047;28;20417;-70
2023/05/05 03:49:22;;;;;;;1.77;1.20;;;13.50;71.00;;;;;;5093226;28;20048;-70
2023/05/05 03:51:47;;;;;;;1.20;1.10;;;13.60;71.20;;;;;;5113002;28;20040;-70
2023/05/05 03:54:13;;;;;;;1.60;1.15;;;13.60;71.30;;;;;;5076664;28;20493;-69
2023/05/05 03:56:39;;;;;;;1.88;1.30;;;13.50;71.30;;;;;;5112821;28;20126;-70
2023/05/05 03:59:05;;;;;;;1.38;1.10;;;13.40;71.40;;;;;;5112578;28;20092;-70
2023/05/05 04:01:31;;;;;;;2.10;1.35;;;13.40;71.70;;;;;;5112662;28;20500;-70
2023/05/05 04:03:56;;;;;;;1.65;1.30;;;13.30;71.80;;;;;;5113036;28;20039;-70
2023/05/05 04:06:23;;;;;;;1.40;1.15;;;13.30;71.90;;;;;;5093803;28;20130;-70
2023/05/05 04:08:48;;;;;;;1.20;1.10;;;13.30;71.90;;;;;;5112762;28;20374;-70
2023/05/05 04:11:14;;;;;;;2.45;1.50;;;13.40;72.00;;;;;;5094585;28;20042;-70
2023/05/05 04:13:40;;;;;;;2.00;1.30;;;13.30;72.00;;;;;;5109258;28;20493;-70
2023/05/05 04:16:07;;;;;;;1.08;0.98;;;13.30;72.10;;;;;;5112785;28;20042;-70
2023/05/05 04:18:33;;;;;;;1.33;1.00;;;13.30;72.20;;;;;;5112683;28;20043;-70
2023/05/05 04:20:59;;;;;;;1.92;1.17;;;13.30;72.30;;;;;;5113036;28;20507;-71
2023/05/05 04:23:24;;;;;;;1.50;1.23;;;13.30;72.30;;;;;;5077598;28;20048;-71
2023/05/05 04:25:50;;;;;;;1.23;1.10;;;13.30;72.30;;;;;;5094611;28;20485;-71
2023/05/05 04:28:15;;;;;;;1.80;1.10;;;13.30;72.40;;;;;;5094516;28;20071;-71
2023/05/05 04:30:41;;;;;;;1.20;1.08;;;13.30;72.40;;;;;;5094375;28;20039;-71
2023/05/05 04:33:07;;;;;;;1.20;1.08;;;13.20;72.40;;;;;;5112539;28;20051;-71
2023/05/05 04:35:32;;;;;;;1.63;1.30;;;13.20;72.50;;;;;;5112972;28;20046;-71
2023/05/05 04:37:58;;;;;;;1.70;1.20;;;13.20;72.60;;;;;;5113012;28;20512;-71
2023/05/05 04:40:25;;;;;;;1.55;1.08;;;13.20;72.70;;;;;;5112493;28;20055;-71
2023/05/05 04:42:50;;;;;;;1.48;1.00;;;13.10;72.70;;;;;;5112856;28;20047;-71
2023/05/05 04:45:16;;;;;;;1.23;0.90;;;13.20;72.90;;;;;;5112851;28;20408;-71
2023/05/05 04:47:42;;;;;;;0.80;0.80;;;13.20;72.90;;;;;;5113021;28;20087;-71
2023/05/05 04:50:08;;;;;;;1.58;1.10;;;13.10;73.00;;;;;;5094236;28;20027;-71
2023/05/05 04:52:33;;;;;;;1.20;1.05;;;13.00;73.00;;;;;;5112454;28;20036;-71
2023/05/05 04:55:00;;;;;;;1.35;1.17;;;13.10;73.10;;;;;;5056570;28;20493;-71
2023/05/05 04:57:25;;;;;;;1.27;0.95;;;13.10;73.20;;;;;;5112184;28;20054;-71
2023/05/05 04:59:51;;;;;;;1.05;0.95;;;13.10;73.30;;;;;;5112376;28;20460;-71
2023/05/05 05:02:17;;;;;;;0.80;0.70;;;13.10;73.30;;;;;;5112463;28;20046;-71
2023/05/05 05:04:42;;;;;;;1.30;1.00;;;13.10;73.40;;;;;;5112275;28;20130;-71
2023/05/05 05:07:08;;;;;;;0.98;0.88;;;13.00;73.40;;;;;;5112726;28;20115;-71
2023/05/05 05:09:34;;;;;;;1.27;1.05;;;13.10;73.50;;;;;;5112304;28;20055;-71
2023/05/05 05:12:04;;;;;;;1.50;1.20;;;13.10;73.50;;;;;;5112052;28;20506;-71
2023/05/05 05:14:36;;;;;;;1.10;1.00;;;13.10;73.50;;;;;;5112094;28;20070;-71
2023/05/05 05:17:01;;;;;;;0.85;0.82;;;13.20;73.60;;;;;;5113114;28;20071;-71
2023/05/05 05:19:28;;;;;;;0.70;0.70;;;13.20;73.50;;;;;;5115708;28;20105;-71
2023/05/05 05:21:53;;;;;;;1.10;0.73;;;13.20;73.50;;;;;;5115564;28;20043;-71
2023/05/05 05:24:19;;;;;;;0.80;0.70;;;13.20;73.50;;;;;;5097222;28;20527;-71
2023/05/05 05:26:44;;;;;;;0.80;0.80;;;13.30;73.50;;;;;;5079998;28;20071;-71
2023/05/05 05:29:10;;;;;;;1.48;1.00;;;13.30;73.50;;;;;;5115471;28;20100;-71
2023/05/05 05:31:36;;;;;;;0.82;0.82;;;13.30;73.50;;;;;;5115398;28;20043;-71
2023/05/05 05:34:01;;;;;;;0.82;0.68;;;13.40;73.50;;;;;;5115207;28;20036;-71
2023/05/05 05:36:27;;;;;;;1.75;0.90;;;13.40;73.50;;;;;;5115555;28;20480;-71
2023/05/05 05:38:53;;;;;;;0.70;0.70;;;13.40;73.50;;;;;;5115613;28;20473;-71
2023/05/05 05:41:18;;;;;;;0.70;0.70;;;13.40;73.50;;;;;;5115111;28;20047;-71
2023/05/05 05:43:44;;;;;;;0.80;0.80;;;13.50;73.60;;;;;;5096359;28;20063;-71
2023/05/05 05:46:10;;;;;;;0.88;0.68;;;13.50;73.60;;;;;;5115462;28;20040;-71
2023/05/05 05:48:35;;;;;;;0.93;0.70;;;13.50;73.60;;;;;;5115304;28;20385;-71
2023/05/05 05:51:01;;;;;;;0.80;0.70;;;13.60;73.60;;;;;;5115344;28;20044;-70
2023/05/05 05:53:27;;;;;;;0.63;0.63;;;13.50;73.60;;;;;;5097119;28;20043;-70
2023/05/05 05:55:52;;;;;;;1.05;0.60;;;13.60;73.80;;;;;;5115437;28;20043;-70
2023/05/05 05:58:18;;;;;;;0.60;0.60;;;13.60;73.80;;;;;;5115443;28;20123;-71
2023/05/05 06:00:44;;;;;;;0.40;0.40;;;13.60;73.80;;;;;;5115302;28;20131;-71
2023/05/05 06:03:09;;;;;;;0.73;0.68;;;13.60;73.80;;;;;;5115266;28;20508;-70
2023/05/05 06:05:35;;;;;;;0.50;0.50;;;13.70;73.80;;;;;;5114866;28;20118;-70
2023/05/05 06:08:01;;;;;;;0.68;0.68;;;13.70;73.80;;;;;;5115313;28;20031;-70
2023/05/05 06:10:26;;;;;;;0.90;0.80;;;13.80;73.80;;;;;;5097190;28;20039;-71
2023/05/05 06:12:52;;;;;;;0.63;0.63;;;13.80;73.80;;;;;;5115326;28;20374;-70
2023/05/05 06:15:18;;;;;;;0.80;0.50;;;13.80;73.70;;;;;;5114833;28;20043;-71
2023/05/05 06:17:43;;;;;;;0.98;0.60;;;13.80;73.70;;;;;;5096631;28;20035;-70
2023/05/05 06:20:09;;;;;;;0.60;0.60;;;13.90;73.70;;;;;;5114725;28;20088;-71
2023/05/05 06:22:35;;;;;;;0.98;0.70;;;14.00;73.70;;;;;;5114406;28;20397;-71
2023/05/05 06:25:01;;;;;;;0.47;0.47;;;14.10;73.70;;;;;;5114501;28;20123;-70
2023/05/05 06:27:26;;;;;;;0.80;0.77;;;14.10;73.70;;;;;;5095434;28;20069;-70
2023/05/05 06:29:52;;;;;;;0.90;0.80;;;14.20;73.70;;;;;;5114484;28;20039;-71
2023/05/05 06:32:19;;;;;;;0.98;0.90;;;14.30;73.70;;;;;;5114479;28;20043;-71
2023/05/05 06:34:46;;;;;;;0.90;0.90;;;14.40;73.60;;;;;;5114442;28;20501;-71
2023/05/05 06:37:11;;;;;;;1.23;1.02;;;14.40;73.40;;;;;;5114996;28;20118;-71
2023/05/05 06:39:37;;;;;;;0.95;0.85;;;14.60;73.30;;;;;;5114850;28;20445;-71
2023/05/05 06:42:03;;;;;;;1.73;1.20;;;14.80;73.10;;;;;;5114497;28;20131;-71
2023/05/05 06:44:29;;;;;;;1.45;1.05;;;14.90;72.90;;;;;;5114160;28;20136;-71
2023/05/05 06:46:55;;;;;;;0.93;0.82;;;14.90;72.80;;;;;;5114149;28;20044;-71
2023/05/05 06:49:21;;;;;;;1.42;0.95;;;15.10;72.90;;;;;;5114578;28;20047;-72
2023/05/05 06:51:47;;;;;;;1.15;0.95;;;15.10;72.70;;;;;;5095872;28;20036;-71
2023/05/05 06:54:12;;;;;;;1.83;0.90;;;15.20;72.80;;;;;;5095697;28;20080;-72
2023/05/05 06:56:38;;;;;;;0.80;0.80;;;15.20;72.80;;;;;;5113950;28;20043;-71
2023/05/05 06:59:04;;;;;;;1.02;0.80;;;15.30;72.80;;;;;;5114117;28;20039;-72
2023/05/05 07:01:29;;;;;;;1.48;1.23;;;15.40;72.80;;;;;;5094125;28;20048;-71
2023/05/05 07:03:55;;;;;;;2.05;1.20;;;15.50;72.90;;;;;;5095537;28;20396;-69
2023/05/05 07:06:21;;;;;;;2.03;1.40;;;15.50;72.70;;;;;;5113753;28;20165;-71
2023/05/05 07:08:47;;;;;;;1.80;1.20;;;15.60;72.70;;;;;;5095726;28;20453;-71
2023/05/05 07:11:13;;;;;;;2.42;1.30;;;15.70;72.70;;;;;;5114025;28;20055;-71
2023/05/05 07:13:38;;;;;;;1.95;1.40;;;15.80;73.40;;;;;;5114219;28;20419;-70
2023/05/05 07:16:04;;;;;;;2.22;1.40;;;15.90;72.60;;;;;;5114118;28;20124;-72
2023/05/05 07:18:30;;;;;;;3.72;1.65;;;15.90;73.20;;;;;;5113687;28;20143;-71
2023/05/05 07:20:55;;;;;;;1.80;1.20;;;16.00;72.60;;;;;;5114052;28;20119;-72
2023/05/05 07:23:21;;;;;;;1.60;1.33;;;16.00;72.60;;;;;;5113313;28;20370;-69
2023/05/05 07:25:47;;;;;;;2.25;1.42;;;16.10;72.50;;;;;;5114158;28;20039;-71
2023/05/05 07:28:12;;;;;;;2.08;1.25;;;16.20;72.60;;;;;;5114025;28;20557;-71
2023/05/05 07:30:38;;;;;;;3.13;1.80;;;16.20;72.50;;;;;;5113879;28;20046;-71
2023/05/05 07:33:04;;;;;;;1.98;1.08;;;16.30;72.40;;;;;;5113950;28;20044;-71
2023/05/05 07:35:30;;;;;;;1.45;1.15;;;16.50;72.40;;;;;;5113871;28;20070;-71
2023/05/05 07:37:55;;;;;;;1.25;1.15;;;16.50;72.20;;;;;;5113343;28;20054;-70
2023/05/05 07:40:21;;;;;;;2.25;1.17;;;16.60;72.00;;;;;;5060921;28;20032;-69
2023/05/05 07:42:47;;;;;;;1.45;1.10;;;16.70;71.90;;;;;;5113293;28;20039;-69
2023/05/05 07:45:12;;;;;;;1.40;1.10;;;16.90;71.90;;;;;;5113962;28;20374;-69
2023/05/05 07:47:39;;;;;;;1.67;1.15;;;17.00;71.70;;;;;;5113208;28;20032;-70
2023/05/05 07:50:05;;;;;;;1.58;0.95;;;17.20;71.60;;;;;;5113911;28;20384;-70
2023/05/05 07:52:31;;;;;;;1.45;1.10;;;17.30;71.30;;;;;;5113245;28;20094;-70
2023/05/05 07:54:57;;;;;;;0.93;0.90;;;17.50;71.10;;;;;;5113265;28;20074;-70
2023/05/05 07:57:22;;;;;;;1.30;0.98;;;17.60;70.80;;;;;;5113723;28;20044;-68
2023/05/05 07:59:48;;;;;;;0.98;0.82;;;17.80;70.70;;;;;;5113597;28;20086;-68
2023/05/05 08:02:14;;;;;;;1.88;1.52;;;17.90;70.60;;;;;;5113101;28;20098;-69
2023/05/05 08:04:40;;;;;;;1.90;1.40;;;18.10;70.10;;;;;;5093933;28;20040;-70
2023/05/05 08:07:07;;;;;;;2.70;1.40;;;18.30;69.80;;;;;;5093114;28;20043;-69
2023/05/05 08:09:35;;;;;;;2.17;1.25;;;18.50;69.60;;;;;;5094437;28;20050;-69
2023/05/05 08:12:01;;;;;;;3.33;1.60;;;18.60;69.50;;;;;;5112928;28;20032;-70
2023/05/05 08:14:27;;;;;;;1.50;1.23;;;18.70;69.50;;;;;;5093898;28;20040;-69
2023/05/05 08:16:53;;;;;;;1.75;1.08;;;18.90;69.20;;;;;;5113000;28;20043;-69
2023/05/05 08:19:19;;;;;;;1.20;1.10;;;19.00;69.20;;;;;;5112755;28;20184;-68
2023/05/05 08:21:45;;;;;;;1.30;1.10;;;19.00;69.20;;;;;;5093769;28;20046;-69
2023/05/05 08:24:10;;;;;;;1.38;1.17;;;19.10;69.40;;;;;;5113053;28;20075;-70
2023/05/05 08:26:36;;;;;;;2.20;1.10;;;19.20;69.40;;;;;;5112567;28;20481;-68
2023/05/05 08:29:02;;;;;;;2.95;1.58;;;19.30;69.40;;;;;;5112772;28;20032;-69
2023/05/05 08:31:31;;;;;;;1.27;1.10;;;19.50;69.20;;;;;;5112537;28;20086;-68
2023/05/05 08:33:57;;;;;;;1.65;1.15;;;19.70;68.90;;;;;;5112495;28;20044;-68
2023/05/05 08:36:22;;;;;;;1.10;1.00;;;19.90;68.50;;;;;;5112524;28;20038;-69
2023/05/05 08:38:50;;;;;;;1.45;1.00;;;20.00;68.50;;;;;;5112506;28;20051;-68
2023/05/05 08:41:18;;;;;;;1.77;1.10;;;20.10;68.50;;;;;;5112682;28;20043;-68
2023/05/05 08:43:46;;;;;;;0.75;0.75;;;20.20;68.30;;;;;;5112835;28;20035;-69
2023/05/05 08:46:12;;;;;;;1.27;0.80;;;20.20;68.30;;;;;;5112502;28;20031;-70
2023/05/05 08:48:41;;;;;;;1.52;1.02;;;20.20;68.80;;;;;;5112285;28;20477;-70
2023/05/05 08:51:08;;;;;;;2.30;1.33;;;20.20;68.40;;;;;;5094757;28;20485;-68
2023/05/05 08:53:47;;;;;;;1.15;0.95;;;20.30;68.50;;;;;;5115620;28;20083;-69
2023/05/05 08:56:14;;;;;;;1.10;0.98;;;20.40;68.40;;;;;;5116242;28;20044;-67
2023/05/05 08:58:45;;;;;;;1.40;1.20;;;20.30;68.60;;;;;;5116007;28;20066;-69
2023/05/05 09:01:12;;;;;;;1.98;1.30;;;20.30;68.90;;;;;;5095957;28;20504;-70
2023/05/05 09:03:39;;;;;;;1.40;1.00;;;20.10;69.00;;;;;;5116039;28;20047;-71
2023/05/05 09:06:05;;;;;;;0.80;0.80;;;20.00;69.40;;;;;;5098220;28;20115;-70
2023/05/05 09:08:32;;;;;;;2.25;1.45;;;20.00;69.50;;;;;;5115647;28;20043;-70
2023/05/05 09:10:59;;;;;;;1.00;0.90;;;20.10;69.10;;;;;;5115751;28;20086;-70
2023/05/05 09:13:25;;;;;;;1.00;0.90;;;20.10;69.10;;;;;;5115940;28;20489;-68
2023/05/05 09:15:51;;;;;;;1.20;0.90;;;20.00;69.20;;;;;;5115619;28;20128;-69
2023/05/05 09:18:17;;;;;;;1.20;0.80;;;20.00;69.20;;;;;;5115991;28;20134;-69
2023/05/05 09:20:42;;;;;;;0.88;0.80;;;20.00;69.30;;;;;;5116020;28;20377;-68
2023/05/05 09:23:10;;;;;;;1.58;1.10;;;20.00;69.20;;;;;;5097684;28;20043;-68
2023/05/05 09:25:37;;;;;;;1.45;1.02;;;20.00;69.20;;;;;;5115334;28;20043;-69
2023/05/05 09:28:16;;;;;;;3.28;1.30;;;20.00;69.90;;;;;;5115838;28;20036;-69
2023/05/05 09:30:44;;;;;;;1.40;0.90;;;20.00;69.10;;;;;;5115261;28;20036;-70
2023/05/05 09:33:10;;;;;;;1.13;0.90;;;20.00;69.20;;;;;;5097261;28;20039;-70
2023/05/05 09:35:48;;;;;;;1.10;0.90;;;20.20;69.00;;;;;;5115576;28;20040;-69
2023/05/05 09:38:14;;;;;;;0.80;0.80;;;20.30;68.80;;;;;;5079975;28;20071;-70
2023/05/05 09:40:48;;;;;;;0.77;0.77;;;20.30;68.40;;;;;;5115586;28;20067;-69
2023/05/05 09:43:16;;;;;;;1.42;0.70;;;20.30;68.30;;;;;;5097083;28;20040;-69
2023/05/05 09:45:42;;;;;;;0.68;0.60;;;20.20;68.30;;;;;;5115050;28;20039;-69
2023/05/05 09:48:27;;;;;;;0.55;0.50;;;20.30;68.40;;;;;;5115015;28;20036;-68
2023/05/05 09:50:54;;;;;;;0.60;0.60;;;20.20;68.40;;;;;;5114876;28;20447;-69
2023/05/05 09:53:20;;;;;;;0.75;0.70;;;20.30;68.40;;;;;;5114945;28;20528;-69
2023/05/05 09:55:55;;;;;;;0.90;0.70;;;20.30;68.60;;;;;;5115151;28;20039;-69
2023/05/05 09:58:23;;;;;;;0.70;0.70;;;20.30;68.40;;;;;;5096544;28;20485;-69
2023/05/05 10:00:49;;;;;;;1.35;0.90;;;20.30;68.40;;;;;;5114873;28;20043;-70
2023/05/05 10:03:16;;;;;;;0.85;0.70;;;20.50;68.30;;;;;;5114177;28;20040;-69
2023/05/05 10:05:59;;;;;;;1.77;1.00;;;20.40;68.20;;;;;;5114691;28;20119;-70
2023/05/05 10:08:29;;;;;;;1.17;0.85;;;20.50;68.10;;;;;;5114965;28;20039;-70
2023/05/05 10:11:00;;;;;;;1.00;0.80;;;20.50;68.10;;;;;;5096331;28;20085;-70
2023/05/05 10:13:26;;;;;;;0.77;0.60;;;20.50;68.00;;;;;;5114845;28;20496;-70
2023/05/05 10:15:55;;;;;;;0.98;0.70;;;20.40;68.10;;;;;;5114836;28;20039;-70
2023/05/05 10:18:23;;;;;;;0.50;0.50;;;20.40;68.20;;;;;;5114559;28;20101;-70
2023/05/05 10:20:58;;;;;;;0.90;0.65;;;20.30;68.30;;;;;;5096573;28;20043;-70
2023/05/05 10:23:44;;;;;;;0.88;0.65;;;20.30;68.30;;;;;;5114578;28;20047;-70
2023/05/05 10:26:12;;;;;;;0.55;0.55;;;20.30;68.50;;;;;;5114315;28;20050;-70
2023/05/05 10:28:50;;;;;;;1.83;0.70;;;20.20;68.60;;;;;;5096594;28;20478;-70
2023/05/05 10:31:23;;;;;;;0.47;0.43;;;20.30;68.60;;;;;;5114274;28;20054;-70
2023/05/05 10:33:54;;;;;;;0.73;0.70;;;20.20;68.60;;;;;;5114588;28;20040;-70
2023/05/05 10:36:20;;;;;;;1.77;0.77;;;20.10;68.70;;;;;;5114369;28;20043;-69
2023/05/05 10:38:48;;;;;;;1.35;0.70;;;20.20;68.80;;;;;;5114481;28;20508;-70
2023/05/05 10:41:16;;;;;;;0.73;0.73;;;20.20;68.70;;;;;;5114462;28;20059;-70
2023/05/05 10:43:42;;;;;;;0.85;0.73;;;20.20;68.70;;;;;;5095907;28;20035;-70
2023/05/05 10:46:09;;;;;;;0.60;0.60;;;20.30;68.70;;;;;;5114449;28;20038;-69
2023/05/05 10:48:43;;;;;;;1.70;0.68;;;20.30;68.60;;;;;;5079020;28;20079;-70
2023/05/05 10:51:36;;;;;;;0.50;0.50;;;20.30;68.60;;;;;;5114038;28;20031;-70
2023/05/05 10:54:14;;;;;;;0.40;0.40;;;20.30;68.60;;;;;;5114170;28;20557;-69
2023/05/05 10:56:40;;;;;;;0.50;0.40;;;20.30;68.60;;;;;;5114195;28;20050;-70
2023/05/05 10:59:42;;;;;;;0.50;0.40;;;20.30;68.60;;;;;;5113903;28;20481;-70
2023/05/05 11:02:26;;;;;;;1.17;0.30;;;20.40;68.40;;;;;;5113887;28;20042;-70
2023/05/05 11:05:08;;;;;;;0.20;0.20;;;20.40;68.30;;;;;;5114158;28;20055;-70
2023/05/05 11:07:35;;;;;;;0.30;0.30;;;20.40;68.40;;;;;;5113990;28;20123;-70
2023/05/05 11:10:02;;;;;;;0.52;0.22;;;20.30;68.50;;;;;;5096255;28;20039;-71
2023/05/05 11:12:29;;;;;;;0.28;0.28;;;20.20;68.60;;;;;;5113827;28;20036;-70
2023/05/05 11:15:32;;;;;;;0.28;0.28;;;20.00;68.70;;;;;;5113606;28;20108;-70
2023/05/05 11:18:01;;;;;;;0.30;0.30;;;19.90;69.20;;;;;;5114195;28;20511;-70
2023/05/05 11:21:00;;;;;;;0.30;0.30;;;19.60;69.60;;;;;;5113731;28;20031;-70
2023/05/05 11:23:27;;;;;;;0.75;0.32;;;19.60;70.10;;;;;;5100613;28;20050;-69
2023/05/05 11:25:53;;;;;;;0.30;0.30;;;19.40;70.50;;;;;;5114032;28;20035;-70
2023/05/05 11:28:23;;;;;;;1.25;0.30;;;19.40;70.60;;;;;;5113384;28;20135;-69
2023/05/05 11:31:17;;;;;;;0.52;0.50;;;19.30;70.70;;;;;;5095032;28;20133;-69
2023/05/05 11:33:42;;;;;;;0.50;0.40;;;19.30;70.80;;;;;;5099709;28;20092;-71
2023/05/05 11:36:12;;;;;;;1.48;0.65;;;19.40;70.80;;;;;;5113531;28;20035;-70
2023/05/05 11:39:03;;;;;;;0.70;0.40;;;19.30;70.80;;;;;;5113660;28;20047;-70
2023/05/05 11:41:43;;;;;;;;;;;19.00;70.70;;;;;;5081103;28;20040;-69
2023/05/05 11:44:18;;;;;;;0.47;0.30;;;18.40;71.60;;;;;;5113087;28;19916;-72
2023/05/05 11:47:23;;;;;;;0.40;0.32;;;17.60;72.60;;;;;;5113489;28;20122;-70
2023/05/05 11:49:49;;;;;;;0.75;0.30;;;17.00;74.10;;;;;;5086908;28;20180;-70
2023/05/05 11:52:15;;;;;;;0.40;0.22;;;16.40;75.10;;;;;;5094071;28;20497;-70
2023/05/05 11:54:46;;;;;;;0.52;0.20;;;16.00;75.80;;;;;;5113228;28;20046;-71
2023/05/05 11:57:13;;;;;;;1.75;0.40;;;15.60;76.40;;;;;;5095020;28;20071;-69
2023/05/05 11:59:56;;;;;;;2.38;0.40;;;15.30;77.00;;;;;;5112999;28;20039;-70
2023/05/05 12:02:24;;;;;;;0.20;0.20;;;15.10;77.40;;;;;;5113061;28;20065;-70
2023/05/05 12:04:49;;;;;;;0.20;0.20;;;15.00;77.60;;;;;;5112876;28;20040;-70
2023/05/05 12:07:16;;;;;;;0.30;0.25;;;14.90;77.60;;;;;;5112961;28;20481;-71
2023/05/05 12:09:44;;;;;;;0.20;0.20;;;14.80;77.50;;;;;;5092844;28;20062;-71
2023/05/05 12:12:10;;;;;;;0.32;0.20;;;14.70;77.60;;;;;;5113030;28;20039;-71
2023/05/05 12:14:45;;;;;;;0.20;0.20;;;14.70;77.60;;;;;;5094765;28;20050;-70
2023/05/05 12:17:11;;;;;;;0.20;0.20;;;14.60;77.60;;;;;;5112760;28;20496;-71
2023/05/05 12:19:44;;;;;;;0.10;0.10;;;14.60;77.50;;;;;;5113297;28;20040;-70
2023/05/05 12:22:21;;;;;;;0.22;0.20;;;14.60;77.50;;;;;;5112834;28;20040;-71
2023/05/05 12:24:56;;;;;;;0.85;0.28;;;14.60;77.50;;;;;;5112569;28;20104;-70
2023/05/05 12:27:23;;;;;;;0.20;0.20;;;14.70;77.40;;;;;;5112030;28;20514;-70
2023/05/05 12:29:49;;;;;;;0.20;0.20;;;14.70;77.30;;;;;;5094678;28;20477;-71
2023/05/05 12:32:20;;;;;;;0.35;0.20;;;14.70;77.20;;;;;;5112952;28;20031;-71
2023/05/05 12:34:46;;;;;;;0.20;0.20;;;14.70;77.20;;;;;;5112853;28;20044;-71
2023/05/05 12:37:14;;;;;;;0.20;0.20;;;14.70;76.90;;;;;;5094092;28;20054;-72
2023/05/05 12:39:40;;;;;;;0.20;0.20;;;14.70;76.80;;;;;;5094469;28;20496;-71
2023/05/05 12:42:05;;;;;;;0.20;0.20;;;14.80;76.90;;;;;;5112480;28;20097;-71
2023/05/05 12:44:35;;;;;;;0.20;0.20;;;14.80;76.90;;;;;;5112336;28;20120;-71
2023/05/05 12:47:01;;;;;;;0.20;0.20;;;14.80;77.00;;;;;;5112465;28;20040;-71
2023/05/05 12:49:27;;;;;;;0.25;0.25;;;14.80;76.90;;;;;;5112532;28;20040;-71
2023/05/05 12:51:55;;;;;;;0.20;0.20;;;14.90;76.90;;;;;;5094123;28;20080;-71
2023/05/05 12:54:23;;;;;;;0.20;0.20;;;14.90;76.80;;;;;;5112806;28;20039;-71
2023/05/05 12:56:48;;;;;;;0.20;0.20;;;14.90;76.80;;;;;;5112436;28;20508;-72